Links Sitemap Venhuizerweer voor mobiel

AMSTERDAM SCHIPHOL:
Amsterdam Airport Schiphol, Netherlands (EHAM) 52-18N 004-46E -2M
Oct 23, 2018 - 09:55 AM EDT / 2018.10.23 1355 UTC
Wind: from the WNW (290 degrees) at 20 MPH (17 KT):0
Visibility: greater than 7 mile(s):0
Sky conditions: mostly cloudy
Temperature: 57 F (14 C)
Dew Point: 50 F (10 C)
Relative Humidity: 76%
Pressure (altimeter): 30.18 in. Hg (1022 hPa)
ob: EHAM 231355Z 29017KT 9999 FEW018 BKN021 BKN027 14/10 Q1022 NOSIG
cycle: 14
DEELEN:
Deelen, Netherlands (EHDL) 52-04N 005-53E 52M
Oct 23, 2018 - 09:55 AM EDT / 2018.10.23 1355 UTC
Wind: from the W (270 degrees) at 13 MPH (11 KT) (direction variable):0
Visibility: 4 mile(s):0
Sky conditions: overcast
Weather: mist
Temperature: 53 F (12 C)
Dew Point: 50 F (10 C)
Relative Humidity: 87%
Pressure (altimeter): 30.18 in. Hg (1022 hPa)
ob: EHDL 231355Z AUTO 27011KT 220V340 8000 BR FEW014 OVC017 12/10 Q1022 REDZ WHT
cycle: 14
DE KOOY:
De Kooy, Netherlands (EHKD) 52-55N 004-47E 14M
Oct 23, 2018 - 09:55 AM EDT / 2018.10.23 1355 UTC
Wind: from the WNW (290 degrees) at 23 MPH (20 KT) gusting to 36 MPH (31 KT) (direction variable):0
Visibility: greater than 7 mile(s):0
Sky conditions: overcast
Temperature: 57 F (14 C)
Dew Point: 50 F (10 C)
Relative Humidity: 76%
Pressure (altimeter): 30.15 in. Hg (1021 hPa)
ob: EHKD 231355Z AUTO 29020G31KT 260V330 9999 BKN020 OVC024 14/10 Q1021 WHT 29021G31KT 9999 BKN020 BKN025
cycle: 14
EELDE:
Groningen Airport Eelde, Netherlands (EHGG) 53-08N 006-35E 4M
Oct 23, 2018 - 09:55 AM EDT / 2018.10.23 1355 UTC
Wind: from the W (280 degrees) at 16 MPH (14 KT) (direction variable):0
Visibility: 5 mile(s):0
Sky conditions: mostly cloudy
Temperature: 53 F (12 C)
Dew Point: 51 F (11 C)
Relative Humidity: 93%
Pressure (altimeter): 30.06 in. Hg (1018 hPa)
ob: EHGG 231355Z AUTO 28014KT 240V320 9000 FEW007 SCT010 BKN014 12/11 Q1018 BECMG BKN015 TEMPO 7000 RADZ
cycle: 14
EINDHOVEN:
Eindhoven, Netherlands (EHEH) 51-27N 005-25E 28M
Oct 23, 2018 - 09:55 AM EDT / 2018.10.23 1355 UTC
Wind: from the W (280 degrees) at 16 MPH (14 KT) (direction variable):0
Visibility: greater than 7 mile(s):0
Sky conditions: overcast
Temperature: 57 F (14 C)
Dew Point: 48 F (9 C)
Relative Humidity: 71%
Pressure (altimeter): 30.24 in. Hg (1024 hPa)
ob: EHEH 231355Z AUTO 28014KT 220V320 9999 BKN021 OVC024 14/09 Q1024 WHT 27015G25KT 9999 SCT020 BKN025
cycle: 14
GILZE-RIJEN:
Gilze-Rijen, Netherlands (EHGR) 51-34N 004-56E 24M
Oct 23, 2018 - 09:55 AM EDT / 2018.10.23 1355 UTC
Wind: from the W (280 degrees) at 17 MPH (15 KT) (direction variable):0
Visibility: greater than 7 mile(s):0
Sky conditions: overcast
Temperature: 57 F (14 C)
Dew Point: 48 F (9 C)
Relative Humidity: 71%
Pressure (altimeter): 30.24 in. Hg (1024 hPa)
ob: EHGR 231355Z AUTO 28015KT 260V330 9999 OVC020 14/09 Q1024 WHT 29013G23KT 9999 BKN020
cycle: 14
LEEUWARDEN:
Leeuwarden, Netherlands (EHLW) 53-13N 005-46E 11M
Oct 23, 2018 - 09:55 AM EDT / 2018.10.23 1355 UTC
Wind: from the WNW (300 degrees) at 22 MPH (19 KT):0
Visibility: greater than 7 mile(s):0
Sky conditions: overcast
Temperature: 57 F (14 C)
Dew Point: 50 F (10 C)
Relative Humidity: 76%
Pressure (altimeter): 30.09 in. Hg (1019 hPa)
ob: EHLW 231355Z AUTO 30019KT 9999 SCT018 BKN021 OVC024 14/10 Q1019 WHT 28018G28KT 8000 BR BKN017 TEMPO 4000 DZRA RMK R23
cycle: 14
MAASTRICHT:
Maastricht Airport Zuid Limburg, Netherlands (EHBK) 50-55N 005-47E 116M
Oct 23, 2018 - 09:55 AM EDT / 2018.10.23 1355 UTC
Wind: from the WSW (250 degrees) at 14 MPH (12 KT) gusting to 26 MPH (23 KT) (direction variable):0
Visibility: greater than 7 mile(s):0
Sky conditions: mostly cloudy
Temperature: 55 F (13 C)
Dew Point: 44 F (7 C)
Relative Humidity: 66%
Pressure (altimeter): 30.24 in. Hg (1024 hPa)
ob: EHBK 231355Z AUTO 25012G23KT 210V310 9999 BKN025 13/07 Q1024 NOSIG
cycle: 14
ROTTERDAM ZESTIENHOVEN:
Rotterdam Airport Zestienhoven, Netherlands (EHRD) 51-57N 004-27E -4M
Oct 23, 2018 - 09:55 AM EDT / 2018.10.23 1355 UTC
Wind: from the WNW (290 degrees) at 18 MPH (16 KT) (direction variable):0
Visibility: greater than 7 mile(s):0
Sky conditions: overcast
Temperature: 59 F (15 C)
Dew Point: 50 F (10 C)
Relative Humidity: 72%
Pressure (altimeter): 30.24 in. Hg (1024 hPa)
ob: EHRD 231355Z AUTO 29016KT 260V350 9999 SCT021 OVC024 15/10 Q1024 NOSIG
cycle: 14
SOESTERBERG:
Soesterberg, Netherlands (EHSB) 52-08N 005-17E 25M
Nov 20, 2008 - 04:25 AM EST / 2008.11.20 0925 UTC
Wind: from the W (280 degrees) at 16 MPH (14 KT):0
Visibility: greater than 7 mile(s):0
Temperature: 51 F (11 C)
Dew Point: 48 F (9 C)
Relative Humidity: 87%
Pressure (altimeter): 29.83 in. Hg (1010 hPa)
ob: EHSB 200925Z AUTO 28014KT 9999 // 11/09 Q1010
cycle: 9
TWENTE:
Twenthe, Netherlands (EHTW) 52-16N 006-54E 57M
Apr 07, 2008 - 08:25 AM EDT / 2008.04.07 1225 UTC
Wind: from the N (010 degrees) at 7 MPH (6 KT):0
Sky conditions: mostly cloudy
Temperature: 46 F (8 C)
Dew Point: 24 F (-4 C)
Relative Humidity: 42%
Pressure (altimeter): 29.59 in. Hg (1002 hPa)
ob: EHTW 071225Z AUTO 01006KT //// // BKN200/// 08/M04 Q1002 RE//
cycle: 12
VALKENBURG:
Valkenburg, Netherlands (EHVB) 52-11N 004-25E 2M
Apr 01, 2010 - 03:55 AM EDT / 2010.04.01 0755 UTC
Wind: from the WSW (250 degrees) at 20 MPH (17 KT):0
Sky conditions: mostly cloudy
Temperature: 41 F (5 C)
Dew Point: 33 F (1 C)
Relative Humidity: 75%
Pressure (altimeter): 29.62 in. Hg (1003 hPa)
ob: EHVB 010755Z AUTO 25017KT 9999NDV FEW021/// BKN037/// 05/01 Q1003 BLU
cycle: 8
VLIELAND:
Vlieland, Netherlands (EHVL) 53-15N 004-55E 12M
Oct 23, 2018 - 09:55 AM EDT / 2018.10.23 1355 UTC
Wind: from the WNW (300 degrees) at 32 MPH (28 KT):0
Visibility: 4 mile(s):0
Sky conditions: overcast
Weather: haze
Temperature: 57 F (14 C)
Dew Point: 51 F (11 C)
Relative Humidity: 82%
Pressure (altimeter): 30.12 in. Hg (1020 hPa)
ob: EHVL 231355Z AUTO 30028KT 7000 HZ SCT016 BKN020 OVC023 14/11 Q1020 WHT
cycle: 14
VOLKEL:
Volkel, Netherlands (EHVK) 51-39N 005-42E 21M
Oct 23, 2018 - 09:55 AM EDT / 2018.10.23 1355 UTC
Wind: from the W (280 degrees) at 13 MPH (11 KT) gusting to 26 MPH (23 KT) (direction variable):0
Visibility: greater than 7 mile(s):0
Sky conditions: overcast
Temperature: 57 F (14 C)
Dew Point: 48 F (9 C)
Relative Humidity: 71%
Pressure (altimeter): 30.21 in. Hg (1023 hPa)
ob: EHVK 231355Z AUTO 28011G23KT 250V330 9999 SCT019 BKN023 OVC027 14/09 Q1023 WHT 26012KT 9999 SCT018 BKN020 BKN080 TEMPO 28015G25KT
cycle: 14
WOENSDRECHT:
Woensdrecht, Netherlands (EHWO) 51-27N 004-20E 17M
Oct 23, 2018 - 09:55 AM EDT / 2018.10.23 1355 UTC
Wind: from the W (280 degrees) at 15 MPH (13 KT) (direction variable):0
Visibility: greater than 7 mile(s):0
Sky conditions: overcast
Temperature: 57 F (14 C)
Dew Point: 50 F (10 C)
Relative Humidity: 76%
Pressure (altimeter): 30.27 in. Hg (1025 hPa)
ob: EHWO 231355Z AUTO 28013KT 230V320 9999 SCT019 BKN022 OVC054 14/10 Q1025 WHT 27013KT 9999 BKN019 TEMPO 28014G24KT
cycle: 14
Copyright © 2005 - 2018 Venhuizerweer - Alle Rechten Voorbehouden


54.162.118.107